»·PEaware :: DAL899 KPHX-KSAN

DAL899 :: KPHX-KSAN

FLIGHT INFORMATION

Flight Status: Arrived
Operator:
Delta Air Lines
More flights by this operator :: More flights under this callsign
Pilot: Max W. (2591)
Aircraft: BOEING 737-200
(B732)
More flights by this aircraft type
Origin: KPHX Phoenix Sky Harbor Intl
United States
Destination: KSAN San Diego Intl-Lindbergh
United States
More flights between these airports :: More routes between these airports
Route: +BXK4 BXK IPL BARET5
File this flight plan on PilotEdge
Remarks:
Altitude:
(Current/Filed)
28,000ft
Speed:
(Current/Filed)
450kts
Departed: 09-Sep-18 08:36 PM
Arrived: 09-Sep-18 09:39 PM
Distance/Time
Traveled:
264nm/1:02
Distance/Time
To Go:
Arrived

Flight Plot

Page will automatically refresh every two minutes.

Flight plan parsing failed; only flown route is shown


Map Options




Map Legend


Flown Route
Filed Route
Departure Airport
Arrival Airport
Navaid (VOR, NDB)
Fix

Horizontal Profiles

Position Reports

Time Latitude Longitude Heading Altitude Ground
Speed
09-Sep-18 20:27 33.433475 -111.993966 345 1118ft 0kts
09-Sep-18 20:28 33.433475 -111.993966 345 1118ft 0kts
09-Sep-18 20:29 33.433475 -111.993966 345 1118ft 0kts
09-Sep-18 20:30 33.433475 -111.993966 345 1118ft 0kts
09-Sep-18 20:31 33.433475 -111.993966 345 1118ft 0kts
09-Sep-18 20:32 33.433475 -111.993966 345 1118ft 0kts
09-Sep-18 20:33 33.433475 -111.993966 345 1118ft 0kts
09-Sep-18 20:34 33.433454 -111.993959 343 1118ft 2kts
09-Sep-18 20:35 33.433238 -111.993368 265 1118ft 2kts
09-Sep-18 20:36 33.433254 -111.993143 265 1118ft 0kts
09-Sep-18 20:37 33.433162 -111.993314 209 1118ft 9kts
09-Sep-18 20:38 33.431041 -112.000493 270 1118ft 109kts
09-Sep-18 20:39 33.421864 -112.058898 247 2941ft 241kts
09-Sep-18 20:40 33.393043 -112.138604 247 6415ft 276kts
09-Sep-18 20:41 33.370444 -112.226219 283 9919ft 290kts
09-Sep-18 20:42 33.398188 -112.319089 290 12382ft 327kts
09-Sep-18 20:43 33.432431 -112.430194 290 14358ft 364kts
09-Sep-18 20:44 33.448735 -112.534211 272 16525ft 373kts
09-Sep-18 20:45 33.451229 -112.658253 271 18666ft 382kts
09-Sep-18 20:46 33.452797 -112.784429 272 20525ft 390kts
09-Sep-18 20:47 33.451799 -112.915394 266 22144ft 398kts
09-Sep-18 20:48 33.430056 -113.046162 255 23517ft 407kts
09-Sep-18 20:49 33.397725 -113.176864 253 24762ft 413kts
09-Sep-18 20:50 33.363631 -113.308813 253 25786ft 419kts
09-Sep-18 20:51 33.327478 -113.441644 253 26734ft 424kts
09-Sep-18 20:52 33.291050 -113.576324 253 27559ft 429kts
09-Sep-18 20:53 33.254776 -113.708999 252 27826ft 443kts
09-Sep-18 20:54 33.216201 -113.850129 253 27812ft 460kts
09-Sep-18 20:55 33.176202 -113.996334 253 27808ft 469kts
09-Sep-18 20:56 33.135569 -114.144049 253 27807ft 470kts
09-Sep-18 20:57 33.095182 -114.290122 253 27547ft 454kts
09-Sep-18 20:58 33.055871 -114.431780 252 25562ft 447kts
09-Sep-18 20:59 33.017179 -114.570304 252 23846ft 438kts
09-Sep-18 21:00 32.980896 -114.698829 251 23793ft 398kts
09-Sep-18 21:01 32.944168 -114.828365 251 23804ft 436kts
09-Sep-18 21:02 32.904672 -114.967814 251 22508ft 438kts
09-Sep-18 21:03 32.866617 -115.098720 251 19808ft 435kts
09-Sep-18 21:04 32.827109 -115.236397 251 19797ft 445kts
09-Sep-18 21:05 32.787405 -115.374625 251 19775ft 445kts
09-Sep-18 21:06 32.747465 -115.513116 251 19775ft 444kts
09-Sep-18 21:07 32.748709 -115.652071 274 18064ft 425kts
09-Sep-18 21:08 32.755629 -115.788263 271 17236ft 416kts
09-Sep-18 21:09 32.759903 -115.924231 271 16494ft 411kts
09-Sep-18 21:10 32.763555 -116.058791 270 15394ft 406kts
09-Sep-18 21:11 32.766363 -116.169482 270 14881ft 402kts
09-Sep-18 21:12 32.769541 -116.300439 270 13738ft 388kts
09-Sep-18 21:13 32.773030 -116.446226 273 10276ft 371kts
09-Sep-18 21:14 32.770531 -116.546908 254 9954ft 250kts
09-Sep-18 21:15 32.755797 -116.610541 254 9226ft 237kts
09-Sep-18 21:16 32.738744 -116.684635 254 8134ft 234kts
09-Sep-18 21:17 32.709380 -116.750509 239 7046ft 231kts
09-Sep-18 21:18 32.674335 -116.827952 247 5696ft 227kts
09-Sep-18 21:19 32.660242 -116.886917 281 4723ft 224kts
09-Sep-18 21:20 32.676835 -116.957061 286 3956ft 214kts
09-Sep-18 21:21 32.693818 -117.022993 290 2732ft 208kts
09-Sep-18 21:22 32.702780 -117.057361 287 2508ft 202kts
09-Sep-18 21:23 32.702780 -117.057361 287 2508ft 202kts
09-Sep-18 21:25 32.755638 -117.269065 292 2724ft 224kts
09-Sep-18 21:26 32.786258 -117.339252 321 2972ft 258kts
09-Sep-18 21:27 32.842306 -117.315747 68 3470ft 260kts
09-Sep-18 21:28 32.863252 -117.233125 96 3988ft 269kts
09-Sep-18 21:29 32.849122 -117.144497 101 3972ft 264kts
09-Sep-18 21:30 32.835775 -117.061078 101 3985ft 257kts
09-Sep-18 21:31 32.822257 -116.975939 101 3986ft 265kts
09-Sep-18 21:32 32.799799 -116.897063 150 3963ft 231kts
09-Sep-18 21:33 32.744891 -116.895300 182 3970ft 184kts
09-Sep-18 21:34 32.692171 -116.899782 217 3975ft 187kts
09-Sep-18 21:35 32.679079 -116.954260 283 3813ft 177kts
09-Sep-18 21:36 32.689791 -117.008223 283 3457ft 155kts
09-Sep-18 21:37 32.699951 -117.049757 289 2676ft 118kts
09-Sep-18 21:38 32.709963 -117.094472 285 2270ft 155kts
09-Sep-18 21:39 32.721938 -117.143383 287 1063ft 155kts
09-Sep-18 21:40 32.733225 -117.188175 286 22ft 73kts
09-Sep-18 21:41 32.733486 -117.193759 288 22ft 24kts

Navigation Log

Ident Type
Flight plan parsing failed, navigation log unavailable